Accueil
METAR-TAF:

METAR-TAF

Aéroports :

Fairfield Municipal Airport

Fairfield, Illinois, États-Unis

latitude: 38-22-43N, longitude: 088-24-46W, altitude: 133 m

Observation

Le bulletin a été fait il y a 15 minutes, à 16:55 UTC
Vent calme
Température 2°C
Humidité 60%
Pression 1025 hPa
Visibilité: 16.1 km
Ciel couvert à une hauteur de 4200 ft

METAR: KFWC 141655Z AUTO 00000KT 10SM OVC042 02/M05 A3027 RMK AO1 T00231051

Heure: 11:10 (17:10 UTC)


TAF: absent

Observations et prévisions météorologiques de plus de 4000 aéroports (messages METAR et TAF).

Les stations disponibles sont représentées par des disques jaunes et rouges sur la carte.

Passer la souris dessus pour voir le nom de la station.

Cliquer dessus pour voir les observations et prévisions météorologiques.

Pour changer de carte: cliquez sur les boutons verts avec une croix noire pour zoomer, sur le bouton vert avec un tiret pour effectuer un zoom arrière, ou sur les flèches vertes pour les cartes adjacentes.


METAR-TAF: